| Date | Time | Temp. (oF) | Dew Point (oF) | Rel. Hum. (%) | Press. (in.) | Wind Dir. | Wind Speed (mph) | Hourly Rainfall (in.) |
|
|---|---|---|---|---|---|---|---|---|---|
| 1 | 08/10 | 00:00 | 71 | 69 | 95 | 30.08 | E | 1 | 0.00 |
| 2 | 08/09 | 23:00 | 72 | 69 | 93 | 30.08 | E | 2 | 0.00 |
| 3 | 08/09 | 22:00 | 74 | 70 | 90 | 30.08 | S | 0 | 0.00 |
| 4 | 08/09 | 21:00 | 74 | 70 | 89 | 30.08 | E | 1 | 0.00 |
| 5 | 08/09 | 20:00 | 75 | 70 | 86 | 30.08 | S | 5 | 0.00 |
| 6 | miss | miss | miss | miss | miss | miss | miss | miss | |
| 7 | 08/09 | 19:06 | 77 | 71 | 83 | 30.08 | SSE | 4 | 0.00 |
| 8 | miss | miss | miss | miss | miss | miss | miss | miss | |
| 9 | 08/09 | 19:04 | 77 | 71 | 82 | 30.08 | SSE | 3 | 0.00 |
| 10 | miss | miss | miss | miss | miss | miss | miss | miss | |
| 11 | 08/09 | 19:02 | 77 | 71 | 82 | 30.09 | S | 3 | 0.00 |
| 12 | miss | miss | miss | miss | miss | miss | miss | miss | |
| 13 | 08/09 | 19:00 | 77 | 71 | 82 | 30.09 | SSE | 4 | 0.00 |
| 14 | 08/09 | 18:59 | 77 | 71 | 82 | 30.08 | SSE | 2 | 0.00 |
| 15 | 08/09 | 18:58 | 77 | 71 | 82 | 30.09 | SSE | 4 | 0.00 |
| 16 | 08/09 | 18:57 | 77 | 71 | 82 | 30.09 | SSE | 1 | 0.00 |
| 17 | 08/09 | 18:56 | 77 | 71 | 82 | 30.09 | SSE | 2 | 0.00 |
| 18 | 08/09 | 18:55 | 77 | 71 | 82 | 30.09 | S | 5 | 0.00 |
| 19 | miss | miss | miss | miss | miss | miss | miss | miss | |
| 20 | 08/09 | 18:53 | 77 | 70 | 81 | 30.09 | S | 2 | 0.00 |
| 21 | miss | miss | miss | miss | miss | miss | miss | miss | |
| 22 | 08/09 | 18:51 | 77 | 70 | 81 | 30.09 | S | 5 | 0.00 |
| 23 | miss | miss | miss | miss | miss | miss | miss | miss | |
| 24 | 08/09 | 18:49 | 77 | 70 | 81 | 30.08 | S | 7 | 0.00 |
| 25 | miss | miss | miss | miss | miss | miss | miss | miss | |
| 26 | 08/09 | 18:48 | 77 | 70 | 81 | 30.09 | S | 4 | 0.00 |
| 27 | miss | miss | miss | miss | miss | miss | miss | miss | |
| 28 | 08/09 | 18:48 | 77 | 70 | 81 | 30.09 | S | 4 | 0.00 |
| 29 | miss | miss | miss | miss | miss | miss | miss | miss | |
| 30 | 08/09 | 18:48 | 77 | 70 | 81 | 30.09 | S | 4 | 0.00 |
| 31 | 08/09 | 18:00 | 78 | 72 | 82 | 30.08 | SSE | 3 | 0.00 |
| 32 | 08/09 | 17:00 | 78 | 69 | 75 | 30.09 | S | 5 | 0.00 |
| 33 | 08/09 | 16:00 | 79 | 69 | 74 | 30.11 | SE | 3 | 0.00 |
| 34 | 08/09 | 15:00 | 78 | 68 | 74 | 30.12 | ESE | 4 | 0.00 |
| 35 | 08/09 | 14:00 | 80 | 71 | 75 | 30.13 | S | 6 | 0.00 |
| 36 | 08/09 | 13:00 | 79 | 71 | 78 | 30.14 | SSE | 2 | 0.00 |
| 37 | 08/09 | 12:00 | 76 | 72 | 89 | 30.16 | E | 5 | 0.00 |
| 38 | 08/09 | 11:00 | 74 | 73 | 97 | 30.16 | NNE | 4 | 0.00 |
| 39 | 08/09 | 10:00 | 73 | 72 | 99 | 30.18 | W | 1 | 0.00 |
| 40 | 08/09 | 09:00 | 72 | 72 | 100 | 30.17 | N | 4 | 0.00 |
| 41 | 08/09 | 08:00 | 70 | 69 | 100 | 30.17 | NW | 1 | 0.00 |
| 42 | 08/09 | 07:00 | 70 | 69 | 100 | 30.17 | N | 2 | 0.00 |
| 43 | 08/09 | 06:00 | 70 | 69 | 100 | 30.17 | ESE | 1 | 0.00 |
| 44 | 08/09 | 05:00 | 70 | 69 | 100 | 30.14 | ESE | 0 | 0.01 |
| 45 | 08/09 | 04:00 | 70 | 69 | 100 | 30.15 | NE | 0 | 0.00 |
| 46 | 08/09 | 03:00 | 70 | 69 | 100 | 30.16 | SSE | 0 | 0.00 |
| 47 | 08/09 | 02:00 | 70 | 69 | 100 | 30.17 | E | 1 | 0.00 |
| 48 | 08/09 | 01:00 | 70 | 69 | 100 | 30.18 | WNW | 1 | 0.00 |
| 49 | 08/09 | 00:00 | 70 | 69 | 100 | 30.19 | SSW | 0 | -0.01 |
| 50 | 08/08 | 23:00 | 69 | 68 | 100 | 30.19 | NW | 0 | 0.00 |
| 51 | 08/08 | 22:00 | 69 | 68 | 100 | 30.19 | NNW | 0 | 0.00 |
| 52 | 08/08 | 21:00 | 69 | 68 | 100 | 30.17 | SSE | 2 | 0.00 |
| 53 | 08/08 | 20:00 | 70 | 69 | 100 | 30.17 | ESE | 2 | 0.01 |
| 54 | 08/08 | 19:00 | 71 | 70 | 99 | 30.17 | N | 6 | 0.00 |
| 55 | 08/08 | 18:00 | 72 | 71 | 97 | 30.16 | N | 5 | 0.09 |
| 56 | 08/08 | 17:00 | 74 | 68 | 83 | 30.15 | S | 16 | 0.02 |
| 57 | 08/08 | 16:00 | 86 | 73 | 67 | 30.11 | S | 3 | 0.00 |
| 58 | 08/08 | 15:00 | 86 | 75 | 72 | 30.13 | N | 3 | 0.00 |
| 59 | 08/08 | 14:00 | 84 | 75 | 76 | 30.16 | W | 4 | 0.00 |
| 60 | 08/08 | 13:00 | 82 | 75 | 82 | 30.16 | NW | 2 | 0.00 |
| 61 | 08/08 | 12:00 | 81 | 75 | 83 | 30.18 | WSW | 3 | 0.00 |
| 62 | 08/08 | 11:00 | 80 | 76 | 90 | 30.18 | WSW | 4 | 0.00 |
| 63 | 08/08 | 10:00 | 77 | 77 | 100 | 30.18 | S | 2 | 0.00 |
| 64 | 08/08 | 09:00 | 75 | 75 | 100 | 30.17 | E | 0 | 0.00 |
| 65 | 08/08 | 08:00 | 73 | 72 | 100 | 30.17 | NNE | 0 | 0.00 |
| 66 | 08/08 | 07:00 | 72 | 72 | 100 | 30.16 | NNW | 1 | 0.00 |
| 67 | 08/08 | 06:00 | 72 | 72 | 100 | 30.17 | NE | 0 | 0.00 |
| 68 | miss | miss | miss | miss | miss | miss | miss | miss | |
| 69 | 08/08 | 05:04 | 72 | 72 | 100 | 30.16 | NE | 1 | 0.00 |
| 70 | miss | miss | miss | miss | miss | miss | miss | miss | |
| 71 | 08/08 | 05:02 | 72 | 72 | 100 | 30.16 | NNE | 0 | 0.00 |
| 72 | miss | miss | miss | miss | miss | miss | miss | miss | |
| 73 | 08/08 | 05:00 | 72 | 72 | 100 | 30.16 | NNE | 0 | 0.00 |
| 74 | miss | miss | miss | miss | miss | miss | miss | miss | |
| 75 | 08/08 | 05:00 | 72 | 72 | 100 | 30.16 | NNE | 0 | 0.00 |
| 76 | miss | miss | miss | miss | miss | miss | miss | miss | |
| 77 | 08/08 | 05:00 | 72 | 72 | 100 | 30.16 | NNE | 0 | 0.00 |
| 78 | miss | miss | miss | miss | miss | miss | miss | miss | |
| 79 | 08/08 | 05:00 | 72 | 72 | 100 | 30.16 | NNE | 0 | 0.00 |
| 80 | miss | miss | miss | miss | miss | miss | miss | miss | |
| 81 | 08/08 | 05:00 | 72 | 72 | 100 | 30.16 | NNE | 0 | 0.00 |
| 82 | miss | miss | miss | miss | miss | miss | miss | miss | |
| 83 | 08/08 | 05:00 | 72 | 72 | 100 | 30.16 | NNE | 0 | 0.00 |
| 84 | miss | miss | miss | miss | miss | miss | miss | miss | |
| 85 | 08/08 | 05:00 | 72 | 72 | 100 | 30.16 | NNE | 0 | 0.00 |
| 86 | miss | miss | miss | miss | miss | miss | miss | miss | |
| 87 | 08/08 | 05:00 | 72 | 72 | 100 | 30.16 | NNE | 0 | 0.00 |
| 88 | miss | miss | miss | miss | miss | miss | miss | miss | |
| 89 | 08/08 | 05:00 | 72 | 72 | 100 | 30.16 | NNE | 0 | 0.00 |
| 90 | miss | miss | miss | miss | miss | miss | miss | miss | |
| 91 | 08/08 | 05:00 | 72 | 72 | 100 | 30.16 | NNE | 0 | 0.00 |
| 92 | 08/08 | 04:59 | 72 | 72 | 100 | 30.16 | NNE | 1 | 0.00 |
| 93 | 08/08 | 04:00 | 72 | 72 | 100 | 30.15 | NNE | 0 | 0.00 |
| 94 | 08/08 | 03:00 | 72 | 72 | 100 | 30.15 | NNE | 0 | 0.00 |
| 95 | 08/08 | 02:00 | 73 | 72 | 100 | 30.15 | NE | 0 | 0.00 |
| 96 | 08/08 | 01:00 | 73 | 72 | 99 | 30.16 | NNW | 0 | 0.00 |
| 97 | 08/08 | 00:00 | 73 | 72 | 98 | 30.15 | NNW | 0 | -0.12 |